Weather in selectable METAR weather stations

1) Select the Continent / Group:

[Europe]  [Asia]  [Africa]  [North America]  [South America]  
[Central America and Caribbean]  [Oceania]  [Antarctica]  
2) Select the Weather station (City):


METAR = MYNN 211200Z 02005KT 9999 FEW018CB SCT020 BKN220 28/25 A2990

STATIONMYNN
NAMENassau Intl, --, BA
OBSERVED21.09.2020 08:00 (21.09.2020 12:00 UTC), 51 min ago
TEMPERATURE28.0°C ( 82°F)
WINDNNE (20 degrees) at 6 MPH (5 knots; 2.6 m/s)
HUMIDITY84%
HEATINDEX32.2°C (90°F)
PRESSURE1012.5 hPa
Click here to search the weather station or to give the station identifier
(four-character ICAO Location Indicator) for weather data.